Leonidas, Minnesota
Current Conditions -  °F | °C
As of 2:31 PM on Friday 28 Nov 2014 (Local Time) from KEVM Reporting Station
Unknown Precip Unknown Precip  
Wind Chill:   Ceiling: 1600
Heat Index: 18°   Visibility: 10mi
Dew Point: 12°   Wind: 6mph
Humidity: 79%   Direction: 100°E
Pressure: 29.88"   Gusts: NA
Location:  47.4232°N, 92.5107°W
Report Text: KEVM 282031Z AUTO 10005KT 10SM UP BKN016 BKN035 BKN047 M08/M11 A2988 RMK AO2
Loading
Personal Weather Stations






























Interactive Weather Map New forecast layout! Learn more

10-Day Weather Forecast

Advertisements
Track Severe Weather on mobile